Amboy, WA

7:44 AM PDT on September 21, 2014 (GMT -0700)
Rock Creek Area | Change Station
CLOSE
Current Station
Personal Weather Station
Location: Battle Ground, WA
Elevation: 420 ft
Nearby Weather Stations

Elev 420 ft 45.85 °N, 122.52 °W | Updated 1 minute ago

Clear
Clear
59.2 °F
Feels Like 59.2 °F
N
0.0
Wind Variable Wind from ESE
Gusts 0.0 mph

Today
High -- | Low -- °F
--% Chance of Precip.
Yesterday
High -- | Low -- °F
Precip. -- in
6:55 AM 7:09 PM
Waning Crescent, 6% visible
Pressure 29.86 in
Visibility 10.0 miles
Clouds Clear
Dew Point 52 °F
Humidity 78%
Rainfall 0.00 in
Snow Depth 0 in , 0 in , 0 in
UV 0.0 out of 12
Pollen 2.70 out of 12
Air Quality Not available.
Flu Activity Not available.
METAR KSPB 211353Z AUTO 00000KT 10SM CLR 13/11 A2986 RMK AO2 SLP111 T01280106

More Conditions Fewer Conditions

Pressure 29.86 in
Visibility 10.0 miles
Clouds Clear
Dew Point 52 °F
Humidity 78%
Rainfall 0.00 in
Snow Depth 0 in , 0 in , 0 in
UV 0.0 out of 12
Pollen 2.70 out of 12
Air Quality Not available.
Flu Activity Not available.
METAR KSPB 211353Z AUTO 00000KT 10SM CLR 13/11 A2986 RMK AO2 SLP111 T01280106

More Conditions Fewer Conditions

10-Day Weather Forecast

Almanac

Astronomy

Sep. 21, 2014 Rise Set
Actual Time 6:55 AM PDT 7:09 PM PDT
Civil Twilight 6:26 AM PDT 7:39 PM PDT
Nautical Twilight 5:50 AM PDT 8:14 PM PDT
Astronomical Twilight 5:14 AM PDT 8:49 PM PDT
Moon 4:28 AM PDT 5:52 PM PDT
Length of Visible Light 13h 12m
Length of Day
12h 13m
Tomorrow will be 3m 12s shorter.
Waning Crescent, 6% of the Moon is Illuminated
Today
Waning Crescent
Sep 24
New
Oct 1
First Quarter
Oct 8
Full
Oct 15
Last Quarter

Today's Extremes

State Highs State Lows

Community

WunderPhotos

Upload Photos

1,755,167 photos uploaded!

Nearby

Snow Depth

Station Depth Elevation
Stevens Pass 0 in 4070 ft
Mount Crag 0 in 4050 ft
Pope Ridge 0 in 3540 ft
Grouse Camp 0 in 5380 ft
Sourdough Gulch 0 in 4000 ft

Earthquake Activity

City Distance Mag. Time & Date
No recent earthquake activity has been reported nearby.
Minimum magnitude displayed is 2.5.

Coastal Water Temperatures

Place Temperature
No Stations Reporting

Nearby Weather Stations